This is the latest recevied weather packets stored in our database for station/object DB0DUS-10. If no packets are shown the sender has not sent any weather packets the latest 10 day(s).
| Time | Temp. | Humidity | Pressure | Rain* | Wind** | Luminosity | Snow |
|---|---|---|---|---|---|---|---|
| 1777754288 | 15° C | 87% | 1014.8 hPa | 0.25 mm | - | - | - |
| 1777753089 | 15° C | 86% | 1015.1 hPa | 1.02 mm | - | - | - |
| 1777752488 | 15° C | 86% | 1015.3 hPa | 1.27 mm | - | - | - |
| 1777751589 | 15° C | 85% | 1015.4 hPa | 1.52 mm | - | - | - |
| 1777750688 | 15.56° C | 83% | 1015.7 hPa | 1.52 mm | - | - | - |
| 1777748888 | 16.67° C | 80% | 1015.7 hPa | 0.51 mm | - | - | - |
| 1777748589 | 16.67° C | 76% | 1015.6 hPa | 0.25 mm | - | - | - |
| 1777747088 | 19.44° C | 65% | 1016.2 hPa | 0 mm | - | - | - |
| 1777745590 | 20° C | 74% | 1014.6 hPa | 0 mm | - | - | - |
| 1777745289 | 20° C | 71% | 1014.5 hPa | 0 mm | - | - | - |
| 1777744089 | 21.11° C | 59% | 1014.5 hPa | 0 mm | - | - | - |
| 1777743488 | 22.78° C | 50% | 1014.5 hPa | 0 mm | - | - | - |
| 1777742590 | 24.44° C | 49% | 1014.8 hPa | 0 mm | - | - | - |
| 1777741688 | 25° C | 45% | 1014.8 hPa | 0 mm | - | - | - |
| 1777741089 | 25.56° C | 42% | 1014.7 hPa | 0 mm | - | - | - |
| 1777739888 | 27.22° C | 38% | 1015 hPa | 0 mm | - | - | - |
| 1777739589 | 27.22° C | 38% | 1015.1 hPa | 0 mm | - | - | - |
| 1777738089 | 25.56° C | 47% | 1015.5 hPa | 0 mm | - | - | - |
| 1777736590 | 24.44° C | 45% | 1016.1 hPa | 0 mm | - | - | - |
| 1777736289 | 24.44° C | 47% | 1016.1 hPa | 0 mm | - | - | - |
| 1777735089 | 23.89° C | 52% | 1016.5 hPa | 0 mm | - | - | - |
| 1777734489 | 22.78° C | 56% | 1016.4 hPa | 0 mm | - | - | - |
| 1777733589 | 22.78° C | 56% | 1016.7 hPa | 0 mm | - | - | - |
| 1777732689 | 22.22° C | 53% | 1017 hPa | 0 mm | - | - | - |
| 1777732089 | 21.67° C | 55% | 1017.2 hPa | 0 mm | - | - | - |
* Rain latest hour (hover to see other rain measurements)
** Current wind speed in m/s (hover to see current wind gust speed)